Hami, China
Current Conditions -  °F | °C
As of 8:00 PM on Thursday 30 Oct 2014 (Local Time) from ZWWW Reporting Station
Clear Clear  
Wind Chill: 37°   Ceiling: Unl
Heat Index: 37°   Visibility: 5mi
Dew Point: 21°   Wind: 2mph
Humidity: 52%   Direction: 290°WNW
Pressure: 30.45"   Gusts: NA
Location:  42.8°N, 93.45°E
Report Text: ZWWW 301200Z 29001MPS 8000 NSC 03/M06 Q1031 NOSIG
Loading
Personal Weather Stations






























Interactive Weather Map
Tropical Storm Tracking
New forecast layout! Learn more

10-Day Weather Forecast

Advertisements
Track Severe Weather on mobile